sensor_id;sensor_type;location;lat;lon;timestamp;temperature;humidity
2623;DHT22;1321;48.690;9.022;2023-11-21T00:00:39;9.80;99.90
2623;DHT22;1321;48.690;9.022;2023-11-21T00:03:08;9.80;99.90
2623;DHT22;1321;48.690;9.022;2023-11-21T00:05:38;9.80;99.90
2623;DHT22;1321;48.690;9.022;2023-11-21T00:08:08;9.80;1.00
2623;DHT22;1321;48.690;9.022;2023-11-21T00:10:37;9.90;99.90
2623;DHT22;1321;48.690;9.022;2023-11-21T00:13:06;9.80;99.90
2623;DHT22;1321;48.690;9.022;2023-11-21T00:15:36;9.80;36.20
2623;DHT22;1321;48.690;9.022;2023-11-21T00:18:04;9.80;99.90
2623;DHT22;1321;48.690;9.022;2023-11-21T00:20:32;9.80;1.00
2623;DHT22;1321;48.690;9.022;2023-11-21T00:23:00;9.80;1.00
2623;DHT22;1321;48.690;9.022;2023-11-21T00:25:29;9.80;1.00
2623;DHT22;1321;48.690;9.022;2023-11-21T00:27:58;9.80;1.00
2623;DHT22;1321;48.690;9.022;2023-11-21T00:30:28;9.80;1.00
2623;DHT22;1321;48.690;9.022;2023-11-21T00:32:59;9.80;1.00
2623;DHT22;1321;48.690;9.022;2023-11-21T00:35:27;9.80;44.20
2623;DHT22;1321;48.690;9.022;2023-11-21T00:37:55;9.60;99.90
2623;DHT22;1321;48.690;9.022;2023-11-21T00:40:24;9.80;1.00
2623;DHT22;1321;48.690;9.022;2023-11-21T00:42:52;9.80;99.90
2623;DHT22;1321;48.690;9.022;2023-11-21T00:45:20;9.80;99.90
2623;DHT22;1321;48.690;9.022;2023-11-21T00:47:48;9.80;99.90
2623;DHT22;1321;48.690;9.022;2023-11-21T00:50:18;9.80;18.30
2623;DHT22;1321;48.690;9.022;2023-11-21T00:52:46;9.70;26.10
2623;DHT22;1321;48.690;9.022;2023-11-21T00:55:14;9.70;1.00
2623;DHT22;1321;48.690;9.022;2023-11-21T00:57:45;9.70;1.00
2623;DHT22;1321;48.690;9.022;2023-11-21T01:00:13;9.60;99.90
2623;DHT22;1321;48.690;9.022;2023-11-21T01:02:44;9.70;99.90
2623;DHT22;1321;48.690;9.022;2023-11-21T01:05:11;9.70;99.90
2623;DHT22;1321;48.690;9.022;2023-11-21T01:07:40;9.70;99.90
2623;DHT22;1321;48.690;9.022;2023-11-21T01:10:09;9.70;99.90
2623;DHT22;1321;48.690;9.022;2023-11-21T01:12:37;9.60;99.90
2623;DHT22;1321;48.690;9.022;2023-11-21T01:15:06;9.60;99.90
2623;DHT22;1321;48.690;9.022;2023-11-21T01:17:35;9.60;1.00
2623;DHT22;1321;48.690;9.022;2023-11-21T01:20:06;9.60;99.90
2623;DHT22;1321;48.690;9.022;2023-11-21T01:22:41;9.60;99.90
2623;DHT22;1321;48.690;9.022;2023-11-21T01:25:10;9.70;99.90
2623;DHT22;1321;48.690;9.022;2023-11-21T01:27:38;9.70;1.00
2623;DHT22;1321;48.690;9.022;2023-11-21T01:30:07;9.70;1.00
2623;DHT22;1321;48.690;9.022;2023-11-21T01:32:37;9.70;1.00
2623;DHT22;1321;48.690;9.022;2023-11-21T01:35:06;9.80;1.00
2623;DHT22;1321;48.690;9.022;2023-11-21T01:37:36;9.80;99.90
2623;DHT22;1321;48.690;9.022;2023-11-21T01:40:07;9.80;99.90
2623;DHT22;1321;48.690;9.022;2023-11-21T01:42:40;9.70;99.90
2623;DHT22;1321;48.690;9.022;2023-11-21T01:45:10;9.70;1.00
2623;DHT22;1321;48.690;9.022;2023-11-21T01:47:41;9.70;99.90
2623;DHT22;1321;48.690;9.022;2023-11-21T01:50:13;9.70;1.00
2623;DHT22;1321;48.690;9.022;2023-11-21T01:52:44;9.70;45.90
2623;DHT22;1321;48.690;9.022;2023-11-21T01:55:15;9.80;1.00
2623;DHT22;1321;48.690;9.022;2023-11-21T01:57:54;9.70;99.90
2623;DHT22;1321;48.690;9.022;2023-11-21T02:00:23;9.60;99.90
2623;DHT22;1321;48.690;9.022;2023-11-21T02:02:52;9.60;1.00
2623;DHT22;1321;48.690;9.022;2023-11-21T02:05:21;9.60;1.00
2623;DHT22;1321;48.690;9.022;2023-11-21T02:07:49;9.70;99.90
2623;DHT22;1321;48.690;9.022;2023-11-21T02:10:20;9.60;53.70
2623;DHT22;1321;48.690;9.022;2023-11-21T02:12:51;9.70;99.90
2623;DHT22;1321;48.690;9.022;2023-11-21T02:15:19;9.60;1.00
2623;DHT22;1321;48.690;9.022;2023-11-21T02:17:48;9.60;99.90
2623;DHT22;1321;48.690;9.022;2023-11-21T02:20:20;9.70;1.00
2623;DHT22;1321;48.690;9.022;2023-11-21T02:22:51;9.60;1.00
2623;DHT22;1321;48.690;9.022;2023-11-21T02:25:22;9.70;1.00
2623;DHT22;1321;48.690;9.022;2023-11-21T02:27:51;9.70;99.90
2623;DHT22;1321;48.690;9.022;2023-11-21T02:30:21;9.60;1.00
2623;DHT22;1321;48.690;9.022;2023-11-21T02:32:49;9.60;31.10
2623;DHT22;1321;48.690;9.022;2023-11-21T02:35:20;9.60;99.90
2623;DHT22;1321;48.690;9.022;2023-11-21T02:37:50;9.60;99.90
2623;DHT22;1321;48.690;9.022;2023-11-21T02:40:18;9.70;1.00
2623;DHT22;1321;48.690;9.022;2023-11-21T02:42:48;9.70;1.00
2623;DHT22;1321;48.690;9.022;2023-11-21T02:45:19;9.60;99.90
2623;DHT22;1321;48.690;9.022;2023-11-21T02:47:48;9.60;1.00
2623;DHT22;1321;48.690;9.022;2023-11-21T02:50:17;9.60;99.90
2623;DHT22;1321;48.690;9.022;2023-11-21T02:52:47;9.70;1.00
2623;DHT22;1321;48.690;9.022;2023-11-21T02:55:17;9.60;99.90
2623;DHT22;1321;48.690;9.022;2023-11-21T02:57:45;9.60;99.90
2623;DHT22;1321;48.690;9.022;2023-11-21T03:00:14;9.60;99.90
2623;DHT22;1321;48.690;9.022;2023-11-21T03:02:42;9.60;92.40
2623;DHT22;1321;48.690;9.022;2023-11-21T03:05:11;9.60;99.90
2623;DHT22;1321;48.690;9.022;2023-11-21T03:07:39;9.60;99.90
2623;DHT22;1321;48.690;9.022;2023-11-21T03:10:08;9.50;1.00
2623;DHT22;1321;48.690;9.022;2023-11-21T03:12:40;9.50;1.00
2623;DHT22;1321;48.690;9.022;2023-11-21T03:15:08;9.50;99.90
2623;DHT22;1321;48.690;9.022;2023-11-21T03:17:37;9.50;99.90
2623;DHT22;1321;48.690;9.022;2023-11-21T03:20:06;9.50;99.90
2623;DHT22;1321;48.690;9.022;2023-11-21T03:22:38;9.50;1.00
2623;DHT22;1321;48.690;9.022;2023-11-21T03:25:07;9.40;1.00
2623;DHT22;1321;48.690;9.022;2023-11-21T03:27:39;9.40;1.00
2623;DHT22;1321;48.690;9.022;2023-11-21T03:30:08;9.40;99.90
2623;DHT22;1321;48.690;9.022;2023-11-21T03:32:37;9.50;99.90
2623;DHT22;1321;48.690;9.022;2023-11-21T03:35:08;9.50;99.90
2623;DHT22;1321;48.690;9.022;2023-11-21T03:37:36;9.50;99.90
2623;DHT22;1321;48.690;9.022;2023-11-21T03:40:09;9.50;99.90
2623;DHT22;1321;48.690;9.022;2023-11-21T03:42:38;9.40;99.90
2623;DHT22;1321;48.690;9.022;2023-11-21T03:45:07;9.40;76.30
2623;DHT22;1321;48.690;9.022;2023-11-21T03:47:36;9.50;1.00
2623;DHT22;1321;48.690;9.022;2023-11-21T03:50:05;9.50;99.90
2623;DHT22;1321;48.690;9.022;2023-11-21T03:52:35;9.50;99.90
2623;DHT22;1321;48.690;9.022;2023-11-21T03:55:04;9.50;1.00
2623;DHT22;1321;48.690;9.022;2023-11-21T03:57:32;9.50;1.00
2623;DHT22;1321;48.690;9.022;2023-11-21T04:00:02;9.50;99.90
2623;DHT22;1321;48.690;9.022;2023-11-21T04:02:31;9.50;99.90
2623;DHT22;1321;48.690;9.022;2023-11-21T04:05:00;9.50;99.90
2623;DHT22;1321;48.690;9.022;2023-11-21T04:07:28;9.50;74.00
2623;DHT22;1321;48.690;9.022;2023-11-21T04:09:56;9.50;99.90
2623;DHT22;1321;48.690;9.022;2023-11-21T04:12:24;9.50;90.00
2623;DHT22;1321;48.690;9.022;2023-11-21T04:14:52;9.40;1.00
2623;DHT22;1321;48.690;9.022;2023-11-21T04:17:23;9.50;1.00
2623;DHT22;1321;48.690;9.022;2023-11-21T04:19:51;9.40;1.00
2623;DHT22;1321;48.690;9.022;2023-11-21T04:22:19;9.40;29.60
2623;DHT22;1321;48.690;9.022;2023-11-21T04:24:47;9.50;99.90
2623;DHT22;1321;48.690;9.022;2023-11-21T04:27:15;9.40;99.90
2623;DHT22;1321;48.690;9.022;2023-11-21T04:29:44;9.50;1.00
2623;DHT22;1321;48.690;9.022;2023-11-21T04:32:12;9.50;39.70
2623;DHT22;1321;48.690;9.022;2023-11-21T04:34:42;9.50;99.90
2623;DHT22;1321;48.690;9.022;2023-11-21T04:37:10;9.40;1.00
2623;DHT22;1321;48.690;9.022;2023-11-21T04:39:38;9.50;40.80
2623;DHT22;1321;48.690;9.022;2023-11-21T04:42:06;9.50;1.00
2623;DHT22;1321;48.690;9.022;2023-11-21T04:44:34;9.50;99.90
2623;DHT22;1321;48.690;9.022;2023-11-21T04:47:03;9.50;99.90
2623;DHT22;1321;48.690;9.022;2023-11-21T04:49:31;9.50;1.00
2623;DHT22;1321;48.690;9.022;2023-11-21T04:52:01;9.50;1.00
2623;DHT22;1321;48.690;9.022;2023-11-21T04:54:30;9.50;1.00
2623;DHT22;1321;48.690;9.022;2023-11-21T04:56:59;9.50;94.30
2623;DHT22;1321;48.690;9.022;2023-11-21T04:59:27;9.50;1.00
2623;DHT22;1321;48.690;9.022;2023-11-21T05:01:55;9.50;99.90
2623;DHT22;1321;48.690;9.022;2023-11-21T05:04:23;9.50;1.00
2623;DHT22;1321;48.690;9.022;2023-11-21T05:06:52;9.50;99.90
2623;DHT22;1321;48.690;9.022;2023-11-21T05:09:21;9.40;99.90
2623;DHT22;1321;48.690;9.022;2023-11-21T05:11:49;9.40;1.00
2623;DHT22;1321;48.690;9.022;2023-11-21T05:14:17;9.40;99.90
2623;DHT22;1321;48.690;9.022;2023-11-21T05:16:46;9.40;99.90
2623;DHT22;1321;48.690;9.022;2023-11-21T05:19:15;9.40;1.00
2623;DHT22;1321;48.690;9.022;2023-11-21T05:21:43;9.50;1.00
2623;DHT22;1321;48.690;9.022;2023-11-21T05:24:11;9.50;1.00
2623;DHT22;1321;48.690;9.022;2023-11-21T05:26:41;9.50;99.90
2623;DHT22;1321;48.690;9.022;2023-11-21T05:29:09;9.40;1.00
2623;DHT22;1321;48.690;9.022;2023-11-21T05:31:37;9.30;1.00
2623;DHT22;1321;48.690;9.022;2023-11-21T05:34:06;9.30;1.00
2623;DHT22;1321;48.690;9.022;2023-11-21T05:36:34;9.30;99.90
2623;DHT22;1321;48.690;9.022;2023-11-21T05:39:02;9.40;88.60
2623;DHT22;1321;48.690;9.022;2023-11-21T05:41:31;9.30;1.00
2623;DHT22;1321;48.690;9.022;2023-11-21T05:44:00;9.30;1.00
2623;DHT22;1321;48.690;9.022;2023-11-21T05:46:29;9.40;14.10
2623;DHT22;1321;48.690;9.022;2023-11-21T05:48:57;9.30;1.00
2623;DHT22;1321;48.690;9.022;2023-11-21T05:51:25;9.30;1.00
2623;DHT22;1321;48.690;9.022;2023-11-21T05:53:53;9.30;1.00
2623;DHT22;1321;48.690;9.022;2023-11-21T05:56:21;9.30;99.90
2623;DHT22;1321;48.690;9.022;2023-11-21T05:58:49;9.30;1.00
2623;DHT22;1321;48.690;9.022;2023-11-21T06:01:19;9.30;42.70
2623;DHT22;1321;48.690;9.022;2023-11-21T06:03:47;9.30;1.00
2623;DHT22;1321;48.690;9.022;2023-11-21T06:06:16;9.20;99.90
2623;DHT22;1321;48.690;9.022;2023-11-21T06:08:46;9.20;99.90
2623;DHT22;1321;48.690;9.022;2023-11-21T06:11:14;9.30;99.90
2623;DHT22;1321;48.690;9.022;2023-11-21T06:13:43;9.30;1.00
2623;DHT22;1321;48.690;9.022;2023-11-21T06:16:12;9.40;1.00
2623;DHT22;1321;48.690;9.022;2023-11-21T06:18:47;9.30;1.00
2623;DHT22;1321;48.690;9.022;2023-11-21T06:21:15;9.40;99.90
2623;DHT22;1321;48.690;9.022;2023-11-21T06:23:45;9.40;99.90
2623;DHT22;1321;48.690;9.022;2023-11-21T06:26:16;9.40;1.00
2623;DHT22;1321;48.690;9.022;2023-11-21T06:28:45;9.40;99.90
2623;DHT22;1321;48.690;9.022;2023-11-21T06:31:13;9.40;99.90
2623;DHT22;1321;48.690;9.022;2023-11-21T06:33:41;9.30;51.10
2623;DHT22;1321;48.690;9.022;2023-11-21T06:36:11;9.30;1.00
2623;DHT22;1321;48.690;9.022;2023-11-21T06:38:39;9.30;13.90
2623;DHT22;1321;48.690;9.022;2023-11-21T06:41:07;9.30;85.90
2623;DHT22;1321;48.690;9.022;2023-11-21T06:43:36;9.30;1.00
2623;DHT22;1321;48.690;9.022;2023-11-21T06:46:04;9.40;99.90
2623;DHT22;1321;48.690;9.022;2023-11-21T06:48:33;9.40;99.90
2623;DHT22;1321;48.690;9.022;2023-11-21T06:51:01;9.40;91.30
2623;DHT22;1321;48.690;9.022;2023-11-21T06:53:31;9.40;99.90
2623;DHT22;1321;48.690;9.022;2023-11-21T06:56:02;9.40;41.60
2623;DHT22;1321;48.690;9.022;2023-11-21T06:58:30;9.40;99.90
2623;DHT22;1321;48.690;9.022;2023-11-21T07:00:58;9.40;1.00
2623;DHT22;1321;48.690;9.022;2023-11-21T07:03:26;9.30;1.00
2623;DHT22;1321;48.690;9.022;2023-11-21T07:05:54;9.40;99.90
2623;DHT22;1321;48.690;9.022;2023-11-21T07:08:23;9.40;1.00
2623;DHT22;1321;48.690;9.022;2023-11-21T07:10:52;9.40;99.90
2623;DHT22;1321;48.690;9.022;2023-11-21T07:13:20;9.40;99.90
2623;DHT22;1321;48.690;9.022;2023-11-21T07:15:49;9.40;99.90
2623;DHT22;1321;48.690;9.022;2023-11-21T07:18:17;9.40;1.00
2623;DHT22;1321;48.690;9.022;2023-11-21T07:20:45;9.40;99.90
2623;DHT22;1321;48.690;9.022;2023-11-21T07:23:13;9.40;99.90
2623;DHT22;1321;48.690;9.022;2023-11-21T07:25:42;9.40;1.00
2623;DHT22;1321;48.690;9.022;2023-11-21T07:28:11;9.40;99.90
2623;DHT22;1321;48.690;9.022;2023-11-21T07:30:40;9.40;1.00
2623;DHT22;1321;48.690;9.022;2023-11-21T07:33:08;9.40;99.90
2623;DHT22;1321;48.690;9.022;2023-11-21T07:35:36;9.50;84.60
2623;DHT22;1321;48.690;9.022;2023-11-21T07:38:05;9.50;1.00
2623;DHT22;1321;48.690;9.022;2023-11-21T07:40:33;9.50;1.00
2623;DHT22;1321;48.690;9.022;2023-11-21T07:43:01;9.40;99.90
2623;DHT22;1321;48.690;9.022;2023-11-21T07:45:30;9.50;1.00
2623;DHT22;1321;48.690;9.022;2023-11-21T07:47:59;9.50;99.90
2623;DHT22;1321;48.690;9.022;2023-11-21T07:50:30;9.40;29.00
2623;DHT22;1321;48.690;9.022;2023-11-21T07:52:59;9.50;61.60
2623;DHT22;1321;48.690;9.022;2023-11-21T07:55:27;9.50;99.90
2623;DHT22;1321;48.690;9.022;2023-11-21T07:57:59;9.50;99.90
2623;DHT22;1321;48.690;9.022;2023-11-21T08:00:27;9.40;2.50
2623;DHT22;1321;48.690;9.022;2023-11-21T08:02:58;9.40;55.40
2623;DHT22;1321;48.690;9.022;2023-11-21T08:05:27;9.40;99.90
2623;DHT22;1321;48.690;9.022;2023-11-21T08:08:03;9.40;1.00
2623;DHT22;1321;48.690;9.022;2023-11-21T08:10:31;9.40;1.00
2623;DHT22;1321;48.690;9.022;2023-11-21T08:13:00;9.30;99.90
2623;DHT22;1321;48.690;9.022;2023-11-21T08:15:28;9.40;1.00
2623;DHT22;1321;48.690;9.022;2023-11-21T08:17:57;9.50;99.90
2623;DHT22;1321;48.690;9.022;2023-11-21T08:20:26;9.50;99.90
2623;DHT22;1321;48.690;9.022;2023-11-21T08:22:55;9.50;1.00
2623;DHT22;1321;48.690;9.022;2023-11-21T08:25:23;9.60;1.00
2623;DHT22;1321;48.690;9.022;2023-11-21T08:27:52;9.70;91.80
2623;DHT22;1321;48.690;9.022;2023-11-21T08:30:20;9.70;1.00
2623;DHT22;1321;48.690;9.022;2023-11-21T08:32:51;9.80;99.90
2623;DHT22;1321;48.690;9.022;2023-11-21T08:35:22;9.90;99.90
2623;DHT22;1321;48.690;9.022;2023-11-21T08:37:51;9.90;94.80
2623;DHT22;1321;48.690;9.022;2023-11-21T08:40:20;9.90;99.90
2623;DHT22;1321;48.690;9.022;2023-11-21T08:42:48;9.90;99.90
2623;DHT22;1321;48.690;9.022;2023-11-21T08:45:18;10.00;99.90
2623;DHT22;1321;48.690;9.022;2023-11-21T08:47:48;10.00;99.90
2623;DHT22;1321;48.690;9.022;2023-11-21T08:50:17;10.00;99.90
2623;DHT22;1321;48.690;9.022;2023-11-21T08:52:47;10.00;30.20
2623;DHT22;1321;48.690;9.022;2023-11-21T08:55:16;10.10;99.90
2623;DHT22;1321;48.690;9.022;2023-11-21T08:57:46;10.10;99.90
2623;DHT22;1321;48.690;9.022;2023-11-21T09:00:15;10.00;1.00
2623;DHT22;1321;48.690;9.022;2023-11-21T09:02:44;10.00;99.90
2623;DHT22;1321;48.690;9.022;2023-11-21T09:05:14;10.00;99.90
2623;DHT22;1321;48.690;9.022;2023-11-21T09:07:43;10.10;99.90
2623;DHT22;1321;48.690;9.022;2023-11-21T09:10:14;10.00;99.90
2623;DHT22;1321;48.690;9.022;2023-11-21T09:12:42;10.10;99.90
2623;DHT22;1321;48.690;9.022;2023-11-21T09:15:11;10.10;1.00
2623;DHT22;1321;48.690;9.022;2023-11-21T09:17:39;10.10;96.80
2623;DHT22;1321;48.690;9.022;2023-11-21T09:20:08;10.10;99.90
2623;DHT22;1321;48.690;9.022;2023-11-21T09:22:38;10.10;1.00
2623;DHT22;1321;48.690;9.022;2023-11-21T09:25:07;10.10;1.00
2623;DHT22;1321;48.690;9.022;2023-11-21T09:27:37;10.10;99.90
2623;DHT22;1321;48.690;9.022;2023-11-21T09:30:06;10.20;99.90
2623;DHT22;1321;48.690;9.022;2023-11-21T09:32:38;10.20;1.00
2623;DHT22;1321;48.690;9.022;2023-11-21T09:35:08;10.20;99.90
2623;DHT22;1321;48.690;9.022;2023-11-21T09:37:36;10.20;18.10
2623;DHT22;1321;48.690;9.022;2023-11-21T09:40:10;10.30;1.00
2623;DHT22;1321;48.690;9.022;2023-11-21T09:42:48;10.30;99.90
2623;DHT22;1321;48.690;9.022;2023-11-21T09:45:21;10.30;1.00
2623;DHT22;1321;48.690;9.022;2023-11-21T09:47:53;10.30;99.90
2623;DHT22;1321;48.690;9.022;2023-11-21T09:50:23;10.40;1.00
2623;DHT22;1321;48.690;9.022;2023-11-21T09:52:57;10.30;20.40
2623;DHT22;1321;48.690;9.022;2023-11-21T09:55:28;10.40;99.90
2623;DHT22;1321;48.690;9.022;2023-11-21T09:57:58;10.30;99.90
2623;DHT22;1321;48.690;9.022;2023-11-21T10:00:28;10.30;99.90
2623;DHT22;1321;48.690;9.022;2023-11-21T10:03:00;10.20;1.00
2623;DHT22;1321;48.690;9.022;2023-11-21T10:05:29;10.20;99.90
2623;DHT22;1321;48.690;9.022;2023-11-21T10:08:01;10.20;99.90
2623;DHT22;1321;48.690;9.022;2023-11-21T10:10:32;10.10;99.90
2623;DHT22;1321;48.690;9.022;2023-11-21T10:13:04;10.10;1.00
2623;DHT22;1321;48.690;9.022;2023-11-21T10:15:35;10.10;12.20
2623;DHT22;1321;48.690;9.022;2023-11-21T10:18:04;10.10;1.00
2623;DHT22;1321;48.690;9.022;2023-11-21T10:20:33;10.10;99.90
2623;DHT22;1321;48.690;9.022;2023-11-21T10:23:04;10.20;58.90
2623;DHT22;1321;48.690;9.022;2023-11-21T10:25:34;10.10;99.90
2623;DHT22;1321;48.690;9.022;2023-11-21T10:28:05;10.10;1.00
2623;DHT22;1321;48.690;9.022;2023-11-21T10:30:35;10.20;96.10
2623;DHT22;1321;48.690;9.022;2023-11-21T10:33:04;10.20;99.90
2623;DHT22;1321;48.690;9.022;2023-11-21T10:35:42;10.20;50.70
2623;DHT22;1321;48.690;9.022;2023-11-21T10:38:14;10.20;99.90
2623;DHT22;1321;48.690;9.022;2023-11-21T10:40:45;10.10;99.90
2623;DHT22;1321;48.690;9.022;2023-11-21T10:43:15;10.10;1.00
2623;DHT22;1321;48.690;9.022;2023-11-21T10:45:44;10.20;99.90
2623;DHT22;1321;48.690;9.022;2023-11-21T10:48:14;10.20;1.00
2623;DHT22;1321;48.690;9.022;2023-11-21T10:50:45;10.10;1.00
2623;DHT22;1321;48.690;9.022;2023-11-21T10:53:13;10.20;99.90
2623;DHT22;1321;48.690;9.022;2023-11-21T10:55:42;10.20;56.70
2623;DHT22;1321;48.690;9.022;2023-11-21T10:58:15;10.10;99.90
2623;DHT22;1321;48.690;9.022;2023-11-21T11:00:44;10.10;90.00
2623;DHT22;1321;48.690;9.022;2023-11-21T11:03:13;10.10;40.00
2623;DHT22;1321;48.690;9.022;2023-11-21T11:05:44;10.20;99.90
2623;DHT22;1321;48.690;9.022;2023-11-21T11:08:21;10.20;80.80
2623;DHT22;1321;48.690;9.022;2023-11-21T11:10:54;10.20;99.90
2623;DHT22;1321;48.690;9.022;2023-11-21T11:13:25;10.20;99.90
2623;DHT22;1321;48.690;9.022;2023-11-21T11:15:58;10.20;1.00
2623;DHT22;1321;48.690;9.022;2023-11-21T11:18:27;10.20;27.00
2623;DHT22;1321;48.690;9.022;2023-11-21T11:21:05;10.30;99.90
2623;DHT22;1321;48.690;9.022;2023-11-21T11:23:50;10.30;90.40
2623;DHT22;1321;48.690;9.022;2023-11-21T11:26:30;10.30;73.40
2623;DHT22;1321;48.690;9.022;2023-11-21T11:29:10;10.40;99.90
2623;DHT22;1321;48.690;9.022;2023-11-21T11:31:51;10.40;99.90
2623;DHT22;1321;48.690;9.022;2023-11-21T11:34:28;10.40;99.90
2623;DHT22;1321;48.690;9.022;2023-11-21T11:37:01;10.50;69.80
2623;DHT22;1321;48.690;9.022;2023-11-21T11:39:32;10.50;99.90
2623;DHT22;1321;48.690;9.022;2023-11-21T11:42:04;10.50;99.90
2623;DHT22;1321;48.690;9.022;2023-11-21T11:44:51;10.50;5.70
2623;DHT22;1321;48.690;9.022;2023-11-21T11:47:23;10.50;99.90
2623;DHT22;1321;48.690;9.022;2023-11-21T11:50:01;10.50;99.90
2623;DHT22;1321;48.690;9.022;2023-11-21T11:52:35;10.50;99.90
2623;DHT22;1321;48.690;9.022;2023-11-21T11:55:05;10.50;99.90
2623;DHT22;1321;48.690;9.022;2023-11-21T11:57:34;10.60;99.90
2623;DHT22;1321;48.690;9.022;2023-11-21T12:00:12;10.60;99.90
2623;DHT22;1321;48.690;9.022;2023-11-21T12:02:45;10.60;99.90
2623;DHT22;1321;48.690;9.022;2023-11-21T12:05:15;10.60;99.90
2623;DHT22;1321;48.690;9.022;2023-11-21T12:07:47;10.60;99.90
2623;DHT22;1321;48.690;9.022;2023-11-21T12:10:17;10.60;99.90
2623;DHT22;1321;48.690;9.022;2023-11-21T12:12:48;10.60;99.90
2623;DHT22;1321;48.690;9.022;2023-11-21T12:15:18;10.60;99.60
2623;DHT22;1321;48.690;9.022;2023-11-21T12:17:47;10.60;99.90
2623;DHT22;1321;48.690;9.022;2023-11-21T12:20:18;10.60;99.90
2623;DHT22;1321;48.690;9.022;2023-11-21T12:22:47;10.60;99.90
2623;DHT22;1321;48.690;9.022;2023-11-21T12:25:16;10.60;1.00
2623;DHT22;1321;48.690;9.022;2023-11-21T12:27:46;10.60;71.30
2623;DHT22;1321;48.690;9.022;2023-11-21T12:30:18;10.60;99.90
2623;DHT22;1321;48.690;9.022;2023-11-21T12:32:49;10.70;99.90
2623;DHT22;1321;48.690;9.022;2023-11-21T12:35:18;10.70;99.90
2623;DHT22;1321;48.690;9.022;2023-11-21T12:37:48;10.70;99.90
2623;DHT22;1321;48.690;9.022;2023-11-21T12:40:17;10.60;99.90
2623;DHT22;1321;48.690;9.022;2023-11-21T12:42:47;10.70;99.90
2623;DHT22;1321;48.690;9.022;2023-11-21T12:45:22;10.80;99.90
2623;DHT22;1321;48.690;9.022;2023-11-21T12:47:55;10.80;99.90
2623;DHT22;1321;48.690;9.022;2023-11-21T12:50:24;10.90;99.90
2623;DHT22;1321;48.690;9.022;2023-11-21T12:52:59;10.90;99.90
2623;DHT22;1321;48.690;9.022;2023-11-21T12:55:30;11.00;99.90
2623;DHT22;1321;48.690;9.022;2023-11-21T12:58:03;11.10;99.90
2623;DHT22;1321;48.690;9.022;2023-11-21T13:00:40;11.20;99.90
2623;DHT22;1321;48.690;9.022;2023-11-21T13:03:10;11.20;1.00
2623;DHT22;1321;48.690;9.022;2023-11-21T13:05:41;11.20;1.00
2623;DHT22;1321;48.690;9.022;2023-11-21T13:08:14;11.20;1.00
2623;DHT22;1321;48.690;9.022;2023-11-21T13:10:49;11.20;99.90
2623;DHT22;1321;48.690;9.022;2023-11-21T13:13:18;11.20;1.00
2623;DHT22;1321;48.690;9.022;2023-11-21T13:15:53;11.20;1.00
2623;DHT22;1321;48.690;9.022;2023-11-21T13:18:24;11.20;1.00
2623;DHT22;1321;48.690;9.022;2023-11-21T13:20:54;11.20;99.90
2623;DHT22;1321;48.690;9.022;2023-11-21T13:23:24;11.20;1.00
2623;DHT22;1321;48.690;9.022;2023-11-21T13:25:53;11.30;99.90
2623;DHT22;1321;48.690;9.022;2023-11-21T13:28:31;11.30;99.90
2623;DHT22;1321;48.690;9.022;2023-11-21T13:31:03;11.20;1.00
2623;DHT22;1321;48.690;9.022;2023-11-21T13:33:38;11.20;99.90
2623;DHT22;1321;48.690;9.022;2023-11-21T13:36:08;11.20;1.00
2623;DHT22;1321;48.690;9.022;2023-11-21T13:38:38;11.10;99.90
2623;DHT22;1321;48.690;9.022;2023-11-21T13:41:10;11.00;1.00
2623;DHT22;1321;48.690;9.022;2023-11-21T13:43:41;11.00;10.50
2623;DHT22;1321;48.690;9.022;2023-11-21T13:46:14;11.00;99.90
2623;DHT22;1321;48.690;9.022;2023-11-21T13:48:48;11.00;1.00
2623;DHT22;1321;48.690;9.022;2023-11-21T13:51:18;10.90;99.90
2623;DHT22;1321;48.690;9.022;2023-11-21T13:53:48;10.90;1.00
2623;DHT22;1321;48.690;9.022;2023-11-21T13:56:19;10.80;24.00
2623;DHT22;1321;48.690;9.022;2023-11-21T13:58:51;10.70;99.90
2623;DHT22;1321;48.690;9.022;2023-11-21T14:01:24;10.70;1.00
2623;DHT22;1321;48.690;9.022;2023-11-21T14:04:12;10.70;30.20
2623;DHT22;1321;48.690;9.022;2023-11-21T14:06:50;10.70;1.00
2623;DHT22;1321;48.690;9.022;2023-11-21T14:09:23;10.80;40.20
2623;DHT22;1321;48.690;9.022;2023-11-21T14:11:54;10.70;1.00
2623;DHT22;1321;48.690;9.022;2023-11-21T14:14:25;10.80;1.00
2623;DHT22;1321;48.690;9.022;2023-11-21T14:16:55;10.80;99.90
2623;DHT22;1321;48.690;9.022;2023-11-21T14:19:25;10.70;1.00
2623;DHT22;1321;48.690;9.022;2023-11-21T14:21:58;10.70;1.00
2623;DHT22;1321;48.690;9.022;2023-11-21T14:24:27;10.70;1.00
2623;DHT22;1321;48.690;9.022;2023-11-21T14:26:56;10.70;82.30
2623;DHT22;1321;48.690;9.022;2023-11-21T14:29:24;10.70;99.90
2623;DHT22;1321;48.690;9.022;2023-11-21T14:31:55;10.70;1.00
2623;DHT22;1321;48.690;9.022;2023-11-21T14:34:24;10.70;1.00
2623;DHT22;1321;48.690;9.022;2023-11-21T14:36:53;10.70;99.90
2623;DHT22;1321;48.690;9.022;2023-11-21T14:39:21;10.70;99.90
2623;DHT22;1321;48.690;9.022;2023-11-21T14:41:51;10.70;99.90
2623;DHT22;1321;48.690;9.022;2023-11-21T14:44:20;10.70;99.90
2623;DHT22;1321;48.690;9.022;2023-11-21T14:46:54;10.70;99.90
2623;DHT22;1321;48.690;9.022;2023-11-21T14:49:25;10.70;1.00
2623;DHT22;1321;48.690;9.022;2023-11-21T14:51:55;10.70;99.90
2623;DHT22;1321;48.690;9.022;2023-11-21T14:54:27;10.70;1.00
2623;DHT22;1321;48.690;9.022;2023-11-21T14:57:08;10.60;51.70
2623;DHT22;1321;48.690;9.022;2023-11-21T14:59:43;10.60;73.20
2623;DHT22;1321;48.690;9.022;2023-11-21T15:02:15;10.60;99.90
2623;DHT22;1321;48.690;9.022;2023-11-21T15:04:46;10.60;99.90
2623;DHT22;1321;48.690;9.022;2023-11-21T15:07:15;10.60;1.00
2623;DHT22;1321;48.690;9.022;2023-11-21T15:09:42;10.50;1.00
2623;DHT22;1321;48.690;9.022;2023-11-21T15:12:12;10.50;99.90
2623;DHT22;1321;48.690;9.022;2023-11-21T15:14:44;10.50;1.00
2623;DHT22;1321;48.690;9.022;2023-11-21T15:17:16;10.50;99.90
2623;DHT22;1321;48.690;9.022;2023-11-21T15:19:50;10.60;99.90
2623;DHT22;1321;48.690;9.022;2023-11-21T15:22:18;10.60;1.00
2623;DHT22;1321;48.690;9.022;2023-11-21T15:24:46;10.50;37.30
2623;DHT22;1321;48.690;9.022;2023-11-21T15:27:16;10.50;1.00
2623;DHT22;1321;48.690;9.022;2023-11-21T15:29:45;10.50;99.90
2623;DHT22;1321;48.690;9.022;2023-11-21T15:32:14;10.50;99.10
2623;DHT22;1321;48.690;9.022;2023-11-21T15:34:43;10.50;1.00
2623;DHT22;1321;48.690;9.022;2023-11-21T15:37:13;10.50;1.00
2623;DHT22;1321;48.690;9.022;2023-11-21T15:39:42;10.50;99.90
2623;DHT22;1321;48.690;9.022;2023-11-21T15:42:10;10.40;99.90
2623;DHT22;1321;48.690;9.022;2023-11-21T15:44:38;10.40;1.00
2623;DHT22;1321;48.690;9.022;2023-11-21T15:47:06;10.40;1.00
2623;DHT22;1321;48.690;9.022;2023-11-21T15:49:36;10.40;1.00
2623;DHT22;1321;48.690;9.022;2023-11-21T15:52:06;10.40;1.00
2623;DHT22;1321;48.690;9.022;2023-11-21T15:54:38;10.40;99.90
2623;DHT22;1321;48.690;9.022;2023-11-21T15:57:07;10.40;1.00
2623;DHT22;1321;48.690;9.022;2023-11-21T15:59:39;10.40;1.00
2623;DHT22;1321;48.690;9.022;2023-11-21T16:02:10;10.40;99.90
2623;DHT22;1321;48.690;9.022;2023-11-21T16:04:39;10.40;1.00
2623;DHT22;1321;48.690;9.022;2023-11-21T16:07:10;10.40;99.90
2623;DHT22;1321;48.690;9.022;2023-11-21T16:09:39;10.30;1.00
2623;DHT22;1321;48.690;9.022;2023-11-21T16:12:10;10.30;1.00
2623;DHT22;1321;48.690;9.022;2023-11-21T16:14:39;10.30;1.00
2623;DHT22;1321;48.690;9.022;2023-11-21T16:17:10;10.30;99.90
2623;DHT22;1321;48.690;9.022;2023-11-21T16:19:38;10.40;1.00
2623;DHT22;1321;48.690;9.022;2023-11-21T16:22:07;10.30;99.90
2623;DHT22;1321;48.690;9.022;2023-11-21T16:24:36;10.30;1.00
2623;DHT22;1321;48.690;9.022;2023-11-21T16:27:05;10.30;99.90
2623;DHT22;1321;48.690;9.022;2023-11-21T16:29:37;10.30;99.90
2623;DHT22;1321;48.690;9.022;2023-11-21T16:32:06;10.30;99.90
2623;DHT22;1321;48.690;9.022;2023-11-21T16:34:34;10.30;99.90